Time;durP1;ratioP1;P1;durP2;ratioP2;P2;SDS_P1;SDS_P2;PMS_P1;PMS_P2;Temp;Humidity;BMP_temperature;BMP_pressure;BME280_temperature;BME280_humidity;BME280_pressure;Samples;Min_cycle;Max_cycle;Signal;HPM_P1;HPM_P2
2022/08/04 00:00:20;;;;;;;6.88;1.95;;;;;;;21.35;75.49;101380.78;5042500;28;20052;-75
2022/08/04 00:03:00;;;;;;;10.20;2.53;;;;;;;21.35;76.58;101379.97;5031117;28;20433;-76
2022/08/04 00:05:32;;;;;;;5.07;2.17;;;;;;;21.32;77.24;101374.88;5039837;28;20037;-76
2022/08/04 00:08:05;;;;;;;7.40;2.53;;;;;;;21.30;75.77;101380.69;5034620;28;20021;-76
2022/08/04 00:10:33;;;;;;;5.05;1.80;;;;;;;21.29;75.85;101372.63;5036359;28;20124;-76
2022/08/04 00:13:01;;;;;;;6.43;2.28;;;;;;;21.23;77.17;101377.25;5043347;28;20490;-76
2022/08/04 00:15:31;;;;;;;2.97;2.00;;;;;;;21.24;77.07;101369.75;5030885;28;20029;-76
2022/08/04 00:18:02;;;;;;;7.50;2.35;;;;;;;21.26;76.58;101376.75;5044981;28;20033;-76
2022/08/04 00:20:37;;;;;;;8.43;2.13;;;;;;;21.24;76.06;101372.53;5036276;28;20083;-76
2022/08/04 00:23:04;;;;;;;10.13;2.42;;;;;;;21.20;75.75;101375.00;5045095;28;20501;-75
2022/08/04 00:25:30;;;;;;;7.60;2.10;;;;;;;21.20;76.00;101375.00;5040085;28;20438;-76
2022/08/04 00:27:56;;;;;;;13.10;2.63;;;;;;;21.14;75.76;101362.03;5028983;28;20147;-75
2022/08/04 00:30:22;;;;;;;6.30;2.10;;;;;;;21.09;76.95;101361.13;5037368;28;20833;-76
2022/08/04 00:32:48;;;;;;;7.40;2.30;;;;;;;21.10;76.85;101373.97;5043853;28;20033;-76
2022/08/04 00:35:14;;;;;;;5.72;2.60;;;;;;;21.08;75.67;101371.41;5035746;28;20440;-76
2022/08/04 00:37:43;;;;;;;8.50;2.20;;;;;;;20.98;76.92;101360.09;5046935;28;20021;-77
2022/08/04 00:40:47;;;;;;;10.75;2.50;;;;;;;20.94;78.20;101353.38;5049345;28;20097;-74
2022/08/04 00:43:33;;;;;;;6.32;2.30;;;;;;;20.96;77.44;101356.72;5039422;28;20025;-76
2022/08/04 00:46:34;;;;;;;3.95;2.10;;;;;;;20.96;76.97;101351.16;5049479;28;20429;-77
2022/08/04 00:49:21;;;;;;;5.28;2.13;;;;;;;20.94;77.48;101349.72;5046729;28;20033;-76
2022/08/04 00:51:55;;;;;;;6.45;2.60;;;;;;;20.89;77.45;101344.06;5043890;28;20247;-76
2022/08/04 00:54:32;;;;;;;10.60;2.50;;;;;;;20.91;77.21;101342.72;5043266;28;20029;-77
2022/08/04 00:57:34;;;;;;;6.60;2.42;;;;;;;20.91;78.70;101342.72;5041788;28;20041;-76
2022/08/04 01:00:10;;;;;;;13.25;2.30;;;;;;;20.95;79.04;101343.06;5037386;28;20109;-76
2022/08/04 01:02:50;;;;;;;5.28;1.88;;;;;;;20.96;78.36;101342.81;5042714;28;20029;-76
2022/08/04 01:05:39;;;;;;;5.45;2.20;;;;;;;20.93;79.15;101339.69;5042282;28;20034;-76
2022/08/04 01:08:22;;;;;;;4.75;2.33;;;;;;;20.88;78.44;101336.78;5037831;28;20128;-76
2022/08/04 01:10:57;;;;;;;3.40;2.35;;;;;;;20.87;79.14;101340.66;5028738;28;20037;-76
2022/08/04 01:13:42;;;;;;;5.20;2.38;;;;;;;20.84;78.46;101335.59;5028998;28;20368;-76
2022/08/04 01:16:12;;;;;;;4.28;2.30;;;;;;;20.79;78.66;101332.72;5029825;28;20044;-75
2022/08/04 01:18:52;;;;;;;3.88;2.10;;;;;;;20.84;78.84;101335.59;5027961;28;20029;-75
2022/08/04 01:21:29;;;;;;;3.28;2.30;;;;;;;20.83;79.25;101326.41;5042532;28;20022;-76
2022/08/04 01:24:11;;;;;;;;;;;;;;;20.89;80.16;101330.13;5032105;28;20034;-76
2022/08/04 01:27:05;;;;;;;4.63;2.65;;;;;;;20.89;80.25;101322.63;5033168;28;19940;-76
2022/08/04 01:29:36;;;;;;;8.70;2.50;;;;;;;20.89;80.10;101331.00;5031827;28;20132;-76
2022/08/04 01:32:05;;;;;;;5.40;2.35;;;;;;;20.83;79.64;101333.91;5037736;28;20041;-75
2022/08/04 01:34:52;;;;;;;5.30;2.60;;;;;;;20.88;80.22;101328.44;5044724;28;20477;-77
2022/08/04 01:37:29;;;;;;;;;;;;;;;20.83;80.26;101325.56;5033934;28;20512;-77
2022/08/04 01:40:03;;;;;;;5.50;2.10;;;;;;;20.83;79.84;101320.84;5045808;28;19932;-74
2022/08/04 01:42:32;;;;;;;10.30;2.60;;;;;;;20.84;79.61;101319.72;5048545;28;20472;-75
2022/08/04 01:45:00;;;;;;;5.47;2.53;;;;;;;20.81;80.29;101320.22;5031300;28;20488;-76
2022/08/04 01:47:29;;;;;;;5.88;2.38;;;;;;;20.77;80.30;101326.56;5029465;28;20033;-76
2022/08/04 01:50:09;;;;;;;6.13;2.47;;;;;;;20.72;78.82;101324.53;5039131;28;20028;-76
2022/08/04 01:52:36;;;;;;;3.05;2.40;;;;;;;20.76;79.02;101316.53;5043571;28;20021;-76
2022/08/04 01:55:04;;;;;;;8.15;2.40;;;;;;;20.75;79.72;101315.66;5042931;28;20548;-75
2022/08/04 01:57:33;;;;;;;5.90;2.20;;;;;;;20.71;79.91;101324.78;5032740;28;20033;-74
2022/08/04 01:59:59;;;;;;;3.30;2.15;;;;;;;20.75;81.07;101314.84;5044571;28;20484;-76
2022/08/04 02:02:25;;;;;;;3.10;1.92;;;;;;;20.76;80.86;101313.75;5044612;28;20096;-77
2022/08/04 02:04:51;;;;;;;7.57;2.70;;;;;;;20.72;78.79;101321.75;5051382;28;20301;-77
2022/08/04 02:07:34;;;;;;;4.50;2.00;;;;;;;20.72;79.97;101315.34;5039798;28;20080;-75
2022/08/04 02:10:10;;;;;;;8.23;2.60;;;;;;;20.65;81.42;101309.09;5046410;28;20038;-76
2022/08/04 02:12:54;;;;;;;6.30;2.78;;;;;;;20.73;80.97;101317.03;5031167;28;20029;-76
2022/08/04 02:15:45;;;;;;;6.28;2.33;;;;;;;20.71;80.50;101308.09;5034076;28;20116;-75
2022/08/04 02:18:30;;;;;;;7.38;1.67;;;;;;;20.70;80.70;101304.44;5052543;28;20082;-75
2022/08/04 02:21:01;;;;;;;6.15;2.08;;;;;;;20.60;80.93;101298.69;5040292;28;20061;-76
2022/08/04 02:23:33;;;;;;;6.78;2.45;;;;;;;20.55;81.00;101309.75;5032662;28;20025;-76
2022/08/04 02:26:10;;;;;;;5.57;2.25;;;;;;;20.50;80.94;101298.50;5036517;28;20179;-76
2022/08/04 02:28:47;;;;;;;7.05;2.15;;;;;;;20.50;80.79;101284.59;5032638;28;20413;-76
2022/08/04 02:31:24;;;;;;;4.43;2.15;;;;;;;20.47;81.99;101284.25;5051356;28;20044;-76
2022/08/04 02:33:54;;;;;;;;;;;;;;;20.45;80.61;101289.25;5052082;28;20107;-76
2022/08/04 02:36:36;;;;;;;7.50;2.50;;;;;;;20.43;81.64;101297.84;5030552;28;19924;-75
2022/08/04 02:39:04;;;;;;;7.70;2.15;;;;;;;20.39;81.69;101295.81;5040283;28;20380;-75
2022/08/04 02:41:31;;;;;;;7.70;2.97;;;;;;;20.47;81.40;101312.94;5051563;28;20020;-75
2022/08/04 02:43:59;;;;;;;4.68;2.53;;;;;;;20.59;81.07;101297.00;5046825;28;20037;-75
2022/08/04 02:46:26;;;;;;;7.78;2.53;;;;;;;20.61;80.31;101296.75;5037207;28;20029;-75
2022/08/04 02:48:53;;;;;;;7.93;2.22;;;;;;;20.58;80.85;101297.25;5046598;28;20471;-75
2022/08/04 02:51:40;;;;;;;5.72;2.70;;;;;;;20.62;80.48;101298.44;5033172;28;20032;-75
2022/08/04 02:54:06;;;;;;;6.45;2.85;;;;;;;20.62;79.64;101298.44;5041288;28;20025;-76
2022/08/04 02:56:34;;;;;;;6.38;2.58;;;;;;;20.62;80.67;101299.31;5050495;28;20086;-76
2022/08/04 02:59:06;;;;;;;10.05;2.38;;;;;;;20.60;80.21;101290.34;5043460;28;20026;-77
2022/08/04 03:01:32;;;;;;;8.35;3.53;;;;;;;20.58;80.34;101295.34;5043623;28;20112;-76
2022/08/04 03:04:15;;;;;;;7.45;2.33;;;;;;;20.65;80.36;101289.59;5052259;28;20579;-76
2022/08/04 03:06:58;;;;;;;8.02;2.30;;;;;;;20.68;80.15;101291.88;5045004;28;20022;-77
2022/08/04 03:09:42;;;;;;;7.88;2.70;;;;;;;20.63;79.96;101300.13;5040399;28;20033;-76
2022/08/04 03:12:34;;;;;;;8.23;2.33;;;;;;;20.63;79.30;101291.78;5050624;28;20433;-76
2022/08/04 03:15:27;;;;;;;5.65;2.53;;;;;;;20.66;79.92;101292.13;5043940;28;20433;-76
2022/08/04 03:18:30;;;;;;;5.70;2.70;;;;;;;20.64;79.43;101287.94;5051059;28;20040;-76
2022/08/04 03:21:21;;;;;;;9.32;3.03;;;;;;;20.61;80.00;101282.84;5028903;28;20092;-75
2022/08/04 03:24:23;;;;;;;3.97;2.25;;;;;;;20.61;79.64;101291.19;5035759;28;20029;-76
2022/08/04 03:27:32;;;;;;;5.60;2.78;;;;;;;20.59;79.30;101282.25;5042918;28;20084;-77
2022/08/04 03:30:04;;;;;;;;;;;;;;;20.59;79.32;101285.06;5049500;28;20033;-76
2022/08/04 03:32:38;;;;;;;9.55;2.80;;;;;;;20.66;79.00;101288.50;5046036;28;20300;-76
2022/08/04 03:35:22;;;;;;;9.43;2.97;;;;;;;20.67;79.09;101287.41;5034387;28;20029;-76
2022/08/04 03:37:59;;;;;;;9.63;2.28;;;;;;;20.72;79.00;101291.13;5028962;28;20037;-76
2022/08/04 03:40:39;;;;;;;10.25;3.28;;;;;;;20.72;78.63;101277.22;5031399;28;20102;-76
2022/08/04 03:43:21;;;;;;;9.20;2.35;;;;;;;20.71;78.42;101277.44;5051404;28;20044;-76
2022/08/04 03:46:11;;;;;;;10.40;3.05;;;;;;;20.71;78.21;101281.06;5041849;28;20030;-75
2022/08/04 03:49:10;;;;;;;6.85;2.50;;;;;;;20.68;78.44;101277.94;5033946;28;20389;-76
2022/08/04 03:55:14;;;;;;;4.43;2.42;;;;;;;20.64;78.86;101276.78;5050125;28;20059;-77
2022/08/04 03:58:04;;;;;;;10.40;2.35;;;;;;;20.59;78.12;101277.53;5033962;28;20032;-76
2022/08/04 04:00:40;;;;;;;7.32;2.58;;;;;;;20.57;78.59;101276.94;5034707;28;20029;-76
2022/08/04 04:03:20;;;;;;;13.98;2.83;;;;;;;20.57;78.63;101279.72;5034935;28;20029;-76
2022/08/04 04:06:10;;;;;;;10.80;2.22;;;;;;;20.59;77.93;101277.53;5036055;28;20457;-76
2022/08/04 04:08:44;;;;;;;5.13;2.30;;;;;;;20.67;77.55;101276.25;5028149;28;20087;-76
2022/08/04 04:11:45;;;;;;;6.47;2.30;;;;;;;20.64;76.89;101274.00;5036466;28;20017;-74
2022/08/04 04:14:23;;;;;;;10.93;2.60;;;;;;;20.55;76.79;101273.53;5031759;28;20045;-74
2022/08/04 04:17:08;;;;;;;6.93;2.60;;;;;;;20.52;77.54;101276.00;5033302;28;20124;-74
2022/08/04 04:19:40;;;;;;;5.20;2.10;;;;;;;20.49;77.29;101273.72;5035634;28;20063;-74
2022/08/04 04:22:08;;;;;;;4.93;1.77;;;;;;;20.49;77.09;101273.72;5033038;28;20021;-73
2022/08/04 04:25:01;;;;;;;8.05;2.30;;;;;;;20.47;76.88;101273.13;5033086;28;20037;-74
2022/08/04 04:28:09;;;;;;;6.35;4.05;;;;;;;20.46;77.55;101277.88;5040916;28;20044;-75
2022/08/04 04:30:52;;;;;;;5.18;3.50;;;;;;;20.46;77.58;101277.00;5033206;28;20107;-75
2022/08/04 04:33:42;;;;;;;18.60;4.05;;;;;;;20.45;77.31;101278.97;5032006;28;20768;-74
2022/08/04 04:36:16;;;;;;;6.85;3.13;;;;;;;20.50;76.91;101280.97;5028267;28;20033;-75
2022/08/04 04:38:56;;;;;;;8.32;2.63;;;;;;;20.51;77.09;101282.66;5028488;28;20029;-74
2022/08/04 04:41:24;;;;;;;3.83;2.42;;;;;;;20.56;76.46;101269.69;5032478;28;20037;-75
2022/08/04 04:44:04;;;;;;;9.23;2.83;;;;;;;20.61;76.96;101278.13;5030323;28;20378;-76
2022/08/04 04:46:49;;;;;;;10.18;2.58;;;;;;;20.64;77.41;101280.41;5029925;28;20029;-75
2022/08/04 04:49:36;;;;;;;4.90;2.25;;;;;;;20.65;77.58;101287.66;5029837;28;20033;-75
2022/08/04 04:52:27;;;;;;;6.15;1.95;;;;;;;20.69;77.21;101276.84;5044046;28;20034;-74
2022/08/04 04:55:20;;;;;;;4.82;1.92;;;;;;;20.77;77.24;101282.88;5030379;28;20148;-74
2022/08/04 04:57:49;;;;;;;4.82;2.28;;;;;;;20.78;77.01;101286.47;5026741;28;20041;-74
2022/08/04 05:00:16;;;;;;;11.05;3.70;;;;;;;20.85;76.76;101284.34;5045444;28;20029;-74
2022/08/04 05:03:00;;;;;;;3.97;2.10;;;;;;;20.88;76.16;101287.50;5030202;28;20072;-74
2022/08/04 05:05:46;;;;;;;8.13;2.25;;;;;;;20.91;76.22;101297.31;5029601;28;20503;-74
2022/08/04 05:08:30;;;;;;;6.93;2.47;;;;;;;20.97;75.89;101296.31;5035316;28;20040;-74
2022/08/04 05:11:19;;;;;;;9.40;2.33;;;;;;;21.05;75.86;101305.06;5037050;28;20025;-74
2022/08/04 05:13:49;;;;;;;7.30;2.25;;;;;;;21.12;74.98;101310.47;5049934;28;20078;-75
2022/08/04 05:16:23;;;;;;;6.68;2.15;;;;;;;21.25;74.28;101301.75;5038896;28;20477;-73
2022/08/04 05:18:56;;;;;;;7.95;2.42;;;;;;;21.29;73.94;101294.56;5029757;28;20029;-74
2022/08/04 05:21:36;;;;;;;12.30;2.30;;;;;;;21.31;73.62;101298.78;5029675;28;20072;-74
2022/08/04 05:24:07;;;;;;;15.20;2.60;;;;;;;21.48;73.00;101293.16;5033337;28;20041;-74
2022/08/04 05:26:36;;;;;;;10.45;3.10;;;;;;;21.46;72.33;101290.63;5035675;28;20029;-74
2022/08/04 05:29:08;;;;;;;9.95;2.67;;;;;;;21.49;72.83;101289.25;5032886;28;20353;-74
2022/08/04 05:31:38;;;;;;;8.07;2.40;;;;;;;21.51;73.10;101292.66;5032933;28;20496;-74
2022/08/04 05:34:19;;;;;;;8.82;2.35;;;;;;;21.52;72.73;101299.91;5041837;28;20037;-74
2022/08/04 05:36:51;;;;;;;5.38;2.50;;;;;;;21.57;72.55;101305.56;5035579;28;20396;-74
2022/08/04 05:39:20;;;;;;;6.72;2.47;;;;;;;21.59;72.76;101300.56;5043204;28;20061;-74
2022/08/04 05:41:48;;;;;;;11.35;2.95;;;;;;;21.59;72.94;101307.00;5033029;28;20034;-75
2022/08/04 05:44:18;;;;;;;7.25;3.08;;;;;;;21.61;72.92;101309.53;5037489;28;20035;-74
2022/08/04 05:46:47;;;;;;;12.10;2.55;;;;;;;21.62;72.85;101316.78;5036453;28;20033;-74
2022/08/04 05:49:13;;;;;;;8.73;2.92;;;;;;;21.70;72.95;101313.56;5041818;28;20021;-74
2022/08/04 05:51:39;;;;;;;6.80;2.53;;;;;;;21.73;72.92;101315.84;5029671;28;20017;-74
2022/08/04 05:54:05;;;;;;;11.02;2.22;;;;;;;21.75;73.11;101314.50;5034761;28;20029;-73
2022/08/04 05:56:32;;;;;;;7.85;2.30;;;;;;;21.76;72.58;101306.97;5035690;28;20412;-73
2022/08/04 05:59:01;;;;;;;14.85;2.72;;;;;;;21.80;72.77;101313.69;5030843;28;20110;-74
2022/08/04 06:01:28;;;;;;;11.50;3.00;;;;;;;21.78;73.15;101313.94;5032008;28;20021;-74
2022/08/04 06:03:55;;;;;;;10.25;2.63;;;;;;;21.87;72.50;101315.19;5034910;28;20086;-73
2022/08/04 06:06:21;;;;;;;5.38;1.88;;;;;;;21.89;72.86;101313.00;5034332;28;20338;-73
2022/08/04 06:08:47;;;;;;;7.30;3.10;;;;;;;21.86;72.97;101319.09;5043761;28;20048;-74
2022/08/04 06:11:14;;;;;;;8.17;2.57;;;;;;;21.97;72.80;101320.91;5034275;28;20640;-74
2022/08/04 06:13:49;;;;;;;9.38;2.63;;;;;;;22.03;72.77;101319.03;5036610;28;20114;-73
2022/08/04 06:16:18;;;;;;;9.23;2.50;;;;;;;22.08;72.83;101310.72;5041089;28;20084;-73
2022/08/04 06:18:47;;;;;;;8.10;2.45;;;;;;;22.10;72.50;101314.91;5034665;28;20033;-73
2022/08/04 06:21:17;;;;;;;10.32;2.45;;;;;;;22.21;72.35;101304.72;5038077;28;20412;-73
2022/08/04 06:23:44;;;;;;;16.13;3.03;;;;;;;22.28;72.03;101317.38;5030868;28;20428;-74
2022/08/04 06:26:17;;;;;;;23.08;4.22;;;;;;;22.42;72.09;101317.78;5048417;28;20041;-74
2022/08/04 06:28:44;;;;;;;7.57;2.72;;;;;;;22.57;71.34;101329.16;5037188;28;20032;-75
2022/08/04 06:31:10;;;;;;;14.15;2.20;;;;;;;22.70;71.34;101317.53;5029368;28;20034;-75
2022/08/04 06:33:36;;;;;;;15.60;2.67;;;;;;;23.06;70.27;101319.53;5036255;28;20048;-74
2022/08/04 06:36:04;;;;;;;17.35;3.15;;;;;;;23.31;69.47;101316.97;5031129;28;20056;-73
2022/08/04 06:38:31;;;;;;;9.65;2.85;;;;;;;23.40;69.40;101318.97;5031732;28;20037;-75
2022/08/04 06:40:58;;;;;;;11.30;3.03;;;;;;;23.77;69.50;101321.69;5042289;28;20052;-75
2022/08/04 06:43:25;;;;;;;13.00;2.60;;;;;;;24.10;67.58;101321.31;5036033;28;20401;-75
2022/08/04 06:45:53;;;;;;;4.88;2.45;;;;;;;23.83;66.86;101327.06;5038032;28;20074;-74
2022/08/04 06:48:20;;;;;;;7.82;2.53;;;;;;;23.67;67.79;101325.28;5036182;28;20029;-74
2022/08/04 06:50:50;;;;;;;7.28;2.40;;;;;;;23.58;68.16;101321.31;5040983;28;20022;-76
2022/08/04 06:53:16;;;;;;;11.05;2.20;;;;;;;23.78;68.00;101329.81;5037282;28;20119;-75
2022/08/04 06:55:44;;;;;;;13.27;2.20;;;;;;;24.10;66.49;101327.75;5035818;28;20037;-74
2022/08/04 06:58:11;;;;;;;13.35;2.60;;;;;;;25.00;64.45;101335.50;5035972;28;20029;-74
2022/08/04 07:00:40;;;;;;;5.55;1.83;;;;;;;25.09;62.70;101336.66;5035609;28;20044;-74
2022/08/04 07:03:06;;;;;;;20.63;2.80;;;;;;;25.29;62.34;101331.88;5031132;28;20492;-74
2022/08/04 07:05:33;;;;;;;11.95;2.03;;;;;;;25.49;62.83;101331.84;5029297;28;20055;-75
2022/08/04 07:07:58;;;;;;;8.85;2.20;;;;;;;25.86;61.87;101331.47;5033663;28;20033;-74
2022/08/04 07:10:28;;;;;;;25.30;3.47;;;;;;;25.39;61.82;101336.66;5035741;28;20029;-74
2022/08/04 07:12:56;;;;;;;10.55;2.20;;;;;;;25.17;61.76;101338.88;5030561;28;20116;-74
2022/08/04 07:15:22;;;;;;;9.65;2.25;;;;;;;25.44;61.90;101334.69;5031512;28;20471;-75
2022/08/04 07:17:49;;;;;;;7.65;1.63;;;;;;;25.69;61.76;101343.03;5045221;28;20617;-76
2022/08/04 07:20:15;;;;;;;8.45;2.08;;;;;;;25.99;58.74;101342.97;5036641;28;20483;-77
2022/08/04 07:22:41;;;;;;;3.80;1.50;;;;;;;26.10;58.81;101344.59;5043340;28;20033;-75
2022/08/04 07:25:11;;;;;;;11.02;1.98;;;;;;;26.16;58.68;101348.25;5040787;28;20777;-75
2022/08/04 07:27:37;;;;;;;3.45;1.83;;;;;;;25.97;58.10;101356.47;5040754;28;20052;-75
2022/08/04 07:30:05;;;;;;;5.63;1.83;;;;;;;25.95;58.47;101357.88;5034948;28;20476;-76
2022/08/04 07:32:31;;;;;;;6.72;1.50;;;;;;;26.34;57.85;101368.09;5030968;28;20032;-76
2022/08/04 07:34:57;;;;;;;6.43;1.42;;;;;;;26.06;57.79;101365.13;5034662;28;20033;-77
2022/08/04 07:37:23;;;;;;;6.78;1.73;;;;;;;26.06;57.53;101373.56;5040732;28;20041;-75
2022/08/04 07:39:48;;;;;;;4.57;1.40;;;;;;;25.52;59.29;101378.16;5044181;28;20447;-76
2022/08/04 07:42:18;;;;;;;4.60;1.40;;;;;;;25.91;59.09;101379.22;5033246;28;20076;-76
2022/08/04 07:44:44;;;;;;;7.30;2.10;;;;;;;25.70;58.61;101374.75;5041306;28;20079;-76
2022/08/04 07:47:10;;;;;;;7.05;1.60;;;;;;;25.70;57.97;101372.78;5041787;28;20025;-76
2022/08/04 07:49:36;;;;;;;9.20;1.37;;;;;;;25.54;59.37;101376.75;5037173;28;20492;-76
2022/08/04 07:52:02;;;;;;;7.93;1.95;;;;;;;24.93;61.16;101365.81;5030127;28;20020;-75
2022/08/04 07:54:28;;;;;;;6.43;2.13;;;;;;;25.06;60.65;101385.72;5034411;28;20413;-76
2022/08/04 07:56:54;;;;;;;4.25;1.52;;;;;;;25.58;61.19;101380.69;5035936;28;20028;-75
2022/08/04 07:59:20;;;;;;;7.33;1.60;;;;;;;26.18;59.01;101377.72;5036208;28;20706;-76
2022/08/04 08:01:47;;;;;;;10.15;2.25;;;;;;;26.17;57.62;101389.25;5034017;28;20283;-77
2022/08/04 08:04:13;;;;;;;5.35;1.88;;;;;;;26.03;56.86;101389.00;5044378;28;20056;-76
2022/08/04 08:06:39;;;;;;;10.18;1.40;;;;;;;26.03;56.79;101393.81;5038348;28;20032;-76
2022/08/04 08:09:13;;;;;;;6.72;2.13;;;;;;;25.71;57.82;101387.69;5044840;28;20029;-75
2022/08/04 08:11:39;;;;;;;10.48;2.40;;;;;;;25.39;59.50;101385.19;5035329;28;20180;-76
2022/08/04 08:14:04;;;;;;;6.65;1.60;;;;;;;25.67;58.59;101393.00;5034323;28;20076;-75
2022/08/04 08:16:32;;;;;;;6.18;1.73;;;;;;;25.91;58.26;101391.31;5043257;28;20029;-76
2022/08/04 08:18:59;;;;;;;6.20;2.00;;;;;;;25.78;57.93;101396.66;5046164;28;20029;-75
2022/08/04 08:21:25;;;;;;;2.58;1.35;;;;;;;25.95;58.50;101391.56;5038239;28;20033;-76
2022/08/04 08:23:50;;;;;;;7.50;1.40;;;;;;;25.93;56.15;101400.28;5040668;28;20101;-75
2022/08/04 08:26:16;;;;;;;5.00;1.60;;;;;;;25.90;54.79;101392.41;5041364;28;20037;-76
2022/08/04 08:28:41;;;;;;;6.82;1.85;;;;;;;26.14;54.42;101406.69;5046455;28;20099;-76
2022/08/04 08:31:07;;;;;;;2.17;1.20;;;;;;;26.07;54.05;101397.69;5034560;28;20112;-76
2022/08/04 08:33:32;;;;;;;7.07;1.70;;;;;;;26.34;53.51;101390.56;5040386;28;20109;-76
2022/08/04 08:36:19;;;;;;;7.20;1.40;;;;;;;26.40;53.54;101394.22;5036529;28;20041;-76
2022/08/04 08:39:23;;;;;;;8.80;1.70;;;;;;;26.32;53.20;101398.47;5041730;28;20479;-75
2022/08/04 08:42:08;;;;;;;7.22;1.20;;;;;;;26.29;52.79;101389.75;5018164;28;20041;-75
2022/08/04 08:44:55;;;;;;;8.05;2.10;;;;;;;26.27;53.38;101392.88;5038433;28;20047;-76
2022/08/04 08:47:39;;;;;;;4.18;1.48;;;;;;;26.18;53.44;101391.78;5045956;28;20079;-75
2022/08/04 08:50:42;;;;;;;2.22;1.38;;;;;;;26.51;52.18;101402.28;5036575;28;20051;-75
2022/08/04 08:53:19;;;;;;;7.18;1.40;;;;;;;26.92;51.76;101405.72;5030625;28;20484;-76
2022/08/04 08:56:01;;;;;;;3.45;1.77;;;;;;;26.68;50.99;101405.59;5039381;28;20442;-74
2022/08/04 08:59:00;;;;;;;5.93;1.55;;;;;;;27.28;50.19;101401.56;5039591;28;20025;-75
2022/08/04 09:01:56;;;;;;;3.03;1.30;;;;;;;27.27;49.51;101405.50;5043908;28;20212;-75
2022/08/04 09:04:48;;;;;;;6.25;1.92;;;;;;;27.86;49.83;101411.75;5042428;28;20029;-74
2022/08/04 09:07:25;;;;;;;4.82;1.40;;;;;;;28.08;47.58;101412.91;5035123;28;20029;-74
2022/08/04 09:10:35;;;;;;;3.97;1.50;;;;;;;27.75;47.11;101425.03;5046117;28;20029;-74
2022/08/04 09:13:19;;;;;;;1.85;1.13;;;;;;;27.57;48.38;101427.75;4984851;28;20088;-75
2022/08/04 09:16:01;;;;;;;4.25;1.55;;;;;;;27.35;49.17;101425.41;5046659;28;20056;-75
2022/08/04 09:18:35;;;;;;;5.05;1.20;;;;;;;27.57;49.53;101433.38;5047924;28;20405;-75
2022/08/04 09:21:23;;;;;;;4.25;1.45;;;;;;;27.44;49.68;101440.56;5045783;28;20049;-75
2022/08/04 09:24:17;;;;;;;3.88;1.50;;;;;;;27.31;49.42;101448.84;5036048;28;20112;-75
2022/08/04 09:26:54;;;;;;;5.22;1.25;;;;;;;27.21;49.96;101451.72;5037476;28;20063;-75
2022/08/04 09:29:32;;;;;;;9.45;1.70;;;;;;;27.26;49.30;101449.69;5037574;28;20432;-74
2022/08/04 09:32:50;;;;;;;12.05;1.63;;;;;;;26.64;49.78;101446.69;5046430;28;20051;-75
2022/08/04 09:35:50;;;;;;;3.33;1.23;;;;;;;26.83;50.06;101456.13;5026060;28;20041;-75
2022/08/04 09:38:37;;;;;;;3.85;1.40;;;;;;;26.81;50.56;101451.94;5038810;28;20052;-75
2022/08/04 09:41:11;;;;;;;5.50;1.70;;;;;;;26.65;51.28;101444.69;5042631;28;20465;-76
2022/08/04 09:43:50;;;;;;;10.88;1.70;;;;;;;26.53;50.66;101453.47;5041930;28;20033;-76
2022/08/04 09:46:23;;;;;;;3.08;1.30;;;;;;;26.46;51.98;101452.09;5043180;28;20029;-74
2022/08/04 09:49:03;;;;;;;4.32;1.95;;;;;;;26.35;52.07;101456.06;5045379;28;20107;-77
2022/08/04 09:51:44;;;;;;;7.40;1.38;;;;;;;26.08;51.81;101466.81;5041156;28;20419;-76
2022/08/04 09:54:21;;;;;;;7.55;1.50;;;;;;;26.10;52.40;101468.19;5042831;28;20393;-75
2022/08/04 09:57:08;;;;;;;1.50;1.25;;;;;;;25.85;52.57;101467.38;5038072;28;20487;-75
2022/08/04 09:59:42;;;;;;;4.32;1.80;;;;;;;25.82;52.29;101460.34;5030765;28;20138;-75
2022/08/04 10:02:12;;;;;;;4.53;1.73;;;;;;;25.88;52.43;101469.63;5034366;28;20075;-76
2022/08/04 10:04:41;;;;;;;7.70;1.65;;;;;;;25.82;52.17;101470.75;5047767;28;20033;-75
2022/08/04 10:07:53;;;;;;;6.32;1.95;;;;;;;25.75;52.16;101467.38;5049645;28;20033;-77
2022/08/04 10:10:46;;;;;;;9.77;1.90;;;;;;;25.55;53.80;101478.66;5037637;28;20131;-76
2022/08/04 10:13:22;;;;;;;5.57;1.65;;;;;;;25.53;53.83;101469.63;5044411;28;20440;-75
2022/08/04 10:16:22;;;;;;;7.30;2.40;;;;;;;25.57;53.31;101479.19;5032688;28;20113;-75
2022/08/04 10:18:56;;;;;;;4.93;1.88;;;;;;;25.69;52.75;101477.78;5045371;28;20039;-75
2022/08/04 10:21:30;;;;;;;7.47;1.70;;;;;;;25.70;52.97;101473.00;5067019;28;20037;-75
2022/08/04 10:24:29;;;;;;;4.93;1.45;;;;;;;26.09;52.52;101488.16;5052567;28;20367;-75
2022/08/04 10:27:10;;;;;;;6.30;1.92;;;;;;;26.14;51.42;101494.59;5049543;28;20079;-75
2022/08/04 10:29:46;;;;;;;7.63;1.33;;;;;;;26.32;50.29;101491.19;5038498;28;20033;-76
2022/08/04 10:32:24;;;;;;;3.95;1.65;;;;;;;26.30;50.92;101495.41;5046828;28;20047;-75
2022/08/04 10:35:12;;;;;;;5.95;1.67;;;;;;;26.49;50.81;101493.66;5050376;28;20040;-75
2022/08/04 10:38:09;;;;;;;5.63;1.77;;;;;;;26.76;49.56;101482.88;5048320;28;20040;-75
2022/08/04 10:41:22;;;;;;;2.67;1.35;;;;;;;27.08;49.20;101489.75;5039084;28;20451;-75
2022/08/04 10:44:00;;;;;;;7.78;1.30;;;;;;;27.27;48.45;101476.69;5040274;28;20373;-75
2022/08/04 10:46:50;;;;;;;4.85;1.52;;;;;;;27.20;47.10;101473.38;5045292;28;20028;-75
2022/08/04 10:49:22;;;;;;;5.82;1.45;;;;;;;27.40;47.43;101470.41;5033972;28;20041;-75
2022/08/04 10:52:07;;;;;;;3.13;1.40;;;;;;;27.68;48.21;101469.63;5037047;28;20026;-75
2022/08/04 10:54:49;;;;;;;1.70;1.33;;;;;;;28.60;45.23;101459.94;5039045;28;20021;-74
2022/08/04 10:57:22;;;;;;;5.75;1.45;;;;;;;28.51;44.34;101458.91;5032056;28;20033;-74
2022/08/04 11:00:04;;;;;;;5.82;1.50;;;;;;;28.59;44.51;101463.91;5038356;28;20040;-75
2022/08/04 11:02:49;;;;;;;3.55;1.67;;;;;;;28.84;44.00;101450.28;5038534;28;20116;-75
2022/08/04 11:05:24;;;;;;;4.15;1.33;;;;;;;28.79;44.35;101446.69;5034922;28;20068;-75
2022/08/04 11:07:55;;;;;;;3.47;1.70;;;;;;;28.75;43.98;101452.09;5047469;28;20052;-75
2022/08/04 11:10:24;;;;;;;8.93;1.73;;;;;;;29.06;44.30;101458.19;5038524;28;20035;-76
2022/08/04 11:12:56;;;;;;;3.63;1.38;;;;;;;29.52;43.27;101456.31;5030672;28;20037;-76
2022/08/04 11:15:28;;;;;;;3.80;1.20;;;;;;;29.39;42.45;101445.81;5030906;28;20495;-75
2022/08/04 11:17:58;;;;;;;2.85;1.40;;;;;;;29.03;43.52;101442.69;5036868;28;20037;-76
2022/08/04 11:20:37;;;;;;;8.60;1.40;;;;;;;28.86;43.79;101438.72;5033696;28;20025;-75
2022/08/04 11:23:16;;;;;;;2.47;1.60;;;;;;;29.24;43.03;101440.41;5038345;28;20119;-74
2022/08/04 11:26:20;;;;;;;5.68;1.35;;;;;;;28.83;44.33;101439.31;5036693;28;20103;-76
2022/08/04 11:28:55;;;;;;;5.93;1.58;;;;;;;29.01;44.24;101449.78;5031793;28;20484;-75
2022/08/04 11:31:24;;;;;;;2.90;1.48;;;;;;;28.30;45.64;101449.84;5039848;28;20064;-75
2022/08/04 11:34:04;;;;;;;5.15;1.40;;;;;;;28.25;45.83;101449.91;5039984;28;20025;-75
2022/08/04 11:36:45;;;;;;;4.18;1.42;;;;;;;28.66;45.44;101458.72;5036136;28;20057;-75
2022/08/04 11:39:24;;;;;;;6.32;1.42;;;;;;;28.52;45.60;101467.09;5039656;28;20489;-75
2022/08/04 11:42:00;;;;;;;3.22;1.65;;;;;;;28.71;44.82;101467.13;5033631;28;20124;-75
2022/08/04 11:44:31;;;;;;;9.25;1.80;;;;;;;28.49;46.29;101469.66;5040371;28;20421;-74
2022/08/04 11:47:02;;;;;;;6.50;1.52;;;;;;;28.84;45.74;101477.66;5031801;28;20750;-76
2022/08/04 11:49:33;;;;;;;3.00;1.23;;;;;;;29.47;44.31;101477.03;5030823;28;20053;-77
2022/08/04 11:52:01;;;;;;;2.72;1.40;;;;;;;29.77;42.77;101478.53;5039771;28;20036;-77
2022/08/04 11:54:27;;;;;;;11.15;1.70;;;;;;;29.61;42.70;101477.09;5034544;28;20419;-76
2022/08/04 11:56:53;;;;;;;4.18;1.67;;;;;;;29.80;42.40;101478.75;5037844;28;20091;-75
2022/08/04 11:59:22;;;;;;;4.97;1.63;;;;;;;29.85;41.87;101478.66;5045852;28;20048;-75
2022/08/04 12:02:09;;;;;;;5.45;1.67;;;;;;;29.51;42.62;101483.72;5037053;28;20090;-76
2022/08/04 12:04:41;;;;;;;2.60;1.30;;;;;;;29.64;42.88;101482.97;5032691;28;20028;-75
2022/08/04 12:07:18;;;;;;;9.02;1.52;;;;;;;29.79;42.95;101491.19;5027644;28;20029;-74
2022/08/04 12:10:15;;;;;;;7.80;1.92;;;;;;;30.05;41.76;101483.09;5039506;28;20029;-75